Harp Township, Illinois
Current Conditions -  °F | °C
As of 9:15 PM on Friday 21 Nov 2014 (Local Time) from KAAA Reporting Station
Light Rain Light Rain  
Wind Chill: 28°   Ceiling: 2200
Heat Index: 37°   Visibility: 10mi
Dew Point: 21°   Wind: 13mph
Humidity: 53%   Direction: 160°SSE
Pressure: 30.24"   Gusts: 18mph
Location:  40.143°N, 88.9637°W
Report Text: KAAA 220315Z AUTO 16011G16KT 10SM -RA OVC022 03/M06 A3024 RMK AO2 T00251062
Loading
Personal Weather Stations






























Interactive Weather Map New forecast layout! Learn more

10-Day Weather Forecast

Advertisements
Track Severe Weather on mobile